Terminal Aerodrome Forecast
Issued by NWS

Home | Current Version | Previous Version | Graphics & Text | Print | Product List | Glossary On
Versions: 1 2 3 4 5 6 7 8 9 10 11 12 13 14 15 16 17
000
FTUS43 KICT 222326
TAFHUT
TAF
KHUT 222326Z 2300/2324 22006KT P6SM BKN070
     FM230600 29004KT P6SM VCSH BKN100
     FM230900 35013KT P6SM OVC060
     FM231400 35014G22KT P6SM SCT040
     FM231800 34014KT P6SM VCSH BKN060=

USA.gov is the U.S. government's official web portal to all federal, state and local government web resources and services.